Latest Coastal Weather Observations for Noarlunga

IDS60701

Issued at 2:55 pm CST Saturday 23 August 2014 (issued every 10 minutes, with the page automatically refreshed every 10 minutes)

About coastal observations | Map of coastal stations | Coastal observations for SA | Marine services | Other Formats
Station Details ID: 023885 Name: NOARLUNGA Lat: -35.16 Lon: 138.51 Height: 55.0 m
Data from the previous 72 hours. | See also: Recent months at Noarlunga
Date/Time
CST
Temp

°C
Wind Pressure Rain
since 9am
mm
Weather Cloud Vis
km
Sea
Height
m
Swell
Dir
 
Speed
knots
Gust
knots
hPa Trend Height
m
Period
s
Dir
23/02:30pm 15.3 W 13 18 - - 0.0 - - - - - - -
23/02:00pm 15.4 W 11 18 - - 0.0 - - - - - - -
23/01:30pm 15.8 W 10 17 - - 0.0 - - - - - - -
23/01:00pm 15.4 W 12 18 - - 0.0 - - - - - - -
23/12:30pm 16.0 WNW 10 17 - - 0.0 - - - - - - -
23/12:00pm 15.6 NW 11 16 - - 0.0 - - - - - - -
23/11:30am 14.4 NW 9 13 - - 0.0 - - - - - - -
23/11:00am 13.4 NW 8 13 - - 0.0 - - - - - - -
23/10:30am 13.1 NW 7 11 - - 0.0 - - - - - - -
23/10:00am 13.9 NW 11 16 - - 0.0 - - - - - - -
23/09:30am 14.6 N 14 22 - - 0.0 - - - - - - -
23/09:00am 15.9 N 13 20 - - 0.0 - - - - - - -
23/08:30am 15.9 N 16 25 - - 0.0 - - - - - - -
23/08:00am 15.6 N 14 21 - - 0.0 - - - - - - -
23/07:30am 15.8 N 16 21 - - 0.0 - - - - - - -
23/07:00am 16.0 N 14 22 - - 0.0 - - - - - - -
23/06:30am 16.1 NNE 13 21 - - 0.0 - - - - - - -
23/06:00am 16.4 NNE 12 19 - - 0.0 - - - - - - -
23/05:30am 16.8 NNE 13 19 - - 0.0 - - - - - - -
23/05:00am 16.9 NNE 14 23 - - 0.0 - - - - - - -
23/04:30am 16.7 N 15 21 - - 0.0 - - - - - - -
23/04:00am 16.9 N 16 25 - - 0.0 - - - - - - -
23/03:30am 17.1 N 16 24 - - 0.0 - - - - - - -
23/03:11am 16.9 NNE 15 26 - - 0.0 - - - - - - -
23/03:00am 16.6 NNE 14 23 - - 0.0 - - - - - - -
23/02:30am 16.4 NNE 14 22 - - 0.0 - - - - - - -
23/02:00am 16.3 N 12 18 - - 0.0 - - - - - - -
23/01:30am 16.0 N 11 16 - - 0.0 - - - - - - -
23/01:00am 16.4 NNE 12 17 - - 0.0 - - - - - - -
23/12:30am 16.8 NNE 11 16 - - 0.0 - - - - - - -
23/12:00am 16.9 NNE 10 15 - - 0.0 - - - - - - -
 
Date/Time
CST
Temp

°C
Wind Pressure Rain
since 9am
mm
Weather Cloud Vis
km
Sea
Height
m
Swell
Dir
 
Speed
knots
Gust
knots
hPa Trend Height
m
Period
s
Dir
22/11:30pm 17.1 NNE 9 15 - - 0.0 - - - - - - -
22/11:00pm 16.0 NE 5 8 - - 0.0 - - - - - - -
22/10:30pm 15.7 ENE 6 9 - - 0.0 - - - - - - -
22/10:00pm 15.7 ENE 6 8 - - 0.0 - - - - - - -
22/09:30pm 15.2 ENE 6 10 - - 0.0 - - - - - - -
22/09:00pm 14.1 E 6 7 - - 0.0 - - - - - - -
22/08:30pm 13.7 E 5 6 - - 0.0 - - - - - - -
22/08:00pm 15.0 ENE 5 7 - - 0.0 - - - - - - -
22/07:30pm 15.5 ENE 6 8 - - 0.0 - - - - - - -
22/07:00pm 15.7 ENE 5 7 - - 0.0 - - - - - - -
22/06:30pm 16.7 ENE 4 6 - - 0.0 - - - - - - -
22/06:00pm 18.0 NNE 7 11 - - 0.0 - - - - - - -
22/05:30pm 18.9 NNE 7 13 - - 0.0 - - - - - - -
22/05:00pm 19.7 N 10 14 - - 0.0 - - - - - - -
22/04:30pm 20.5 N 8 11 - - 0.0 - - - - - - -
22/04:00pm 20.3 N 9 15 - - 0.0 - - - - - - -
22/03:30pm 20.3 NNW 9 13 - - 0.0 - - - - - - -
22/03:00pm 20.7 NNW 9 16 - - 0.0 - - - - - - -
22/02:30pm 20.6 NNW 10 14 - - 0.0 - - - - - - -
22/02:00pm 20.6 NNW 10 16 - - 0.0 - - - - - - -
22/01:30pm 20.7 N 11 17 - - 0.0 - - - - - - -
22/01:00pm 21.3 N 10 14 - - 0.0 - - - - - - -
22/12:30pm 20.6 N 11 16 - - 0.0 - - - - - - -
22/12:00pm 20.9 N 9 15 - - 0.0 - - - - - - -
22/11:30am 20.0 NNE 9 14 - - 0.0 - - - - - - -
22/11:00am 19.1 N 11 16 - - 0.0 - - - - - - -
22/10:30am 19.3 NNE 11 17 - - 0.0 - - - - - - -
22/10:00am 18.4 NNE 11 16 - - 0.0 - - - - - - -
22/09:30am 18.1 NNE 13 19 - - 0.0 - - - - - - -
22/09:00am 17.8 NNE 12 17 - - 0.0 - - - - - - -
22/08:30am 17.6 NNE 8 12 - - 0.0 - - - - - - -
22/08:00am 15.9 NNE 6 9 - - 0.0 - - - - - - -
22/07:30am 14.2 NNE 4 6 - - 0.0 - - - - - - -
22/07:00am 13.9 NE 7 11 - - 0.0 - - - - - - -
22/06:30am 13.8 NE 7 9 - - 0.0 - - - - - - -
22/06:00am 13.9 NE 7 9 - - 0.0 - - - - - - -
22/05:30am 14.1 NE 7 11 - - 0.0 - - - - - - -
22/05:00am 14.1 NE 7 10 - - 0.0 - - - - - - -
22/04:30am 14.2 ENE 7 10 - - 0.0 - - - - - - -
22/04:00am 14.4 ENE 7 10 - - 0.0 - - - - - - -
22/03:30am 14.6 NE 7 11 - - 0.0 - - - - - - -
22/03:00am 14.3 ENE 7 11 - - 0.0 - - - - - - -
22/02:30am 13.5 ENE 6 7 - - 0.0 - - - - - - -
22/02:00am 13.7 E 6 8 - - 0.0 - - - - - - -
22/01:30am 13.9 E 7 9 - - 0.0 - - - - - - -
22/01:00am 14.2 ENE 7 10 - - 0.0 - - - - - - -
22/12:30am 14.1 ENE 7 9 - - 0.0 - - - - - - -
22/12:00am 14.4 ENE 7 9 - - 0.0 - - - - - - -
 
Date/Time
CST
Temp

°C
Wind Pressure Rain
since 9am
mm
Weather Cloud Vis
km
Sea
Height
m
Swell
Dir
 
Speed
knots
Gust
knots
hPa Trend Height
m
Period
s
Dir
21/11:30pm 14.3 ENE 7 11 - - 0.0 - - - - - - -
21/11:00pm 14.1 NE 7 12 - - 0.0 - - - - - - -
21/10:30pm 14.1 NE 7 10 - - 0.0 - - - - - - -
21/10:00pm 14.3 ENE 6 9 - - 0.0 - - - - - - -
21/09:30pm 13.8 ENE 5 7 - - 0.0 - - - - - - -
21/09:00pm 13.9 ENE 7 11 - - 0.0 - - - - - - -
21/08:30pm 13.7 ENE 6 7 - - 0.0 - - - - - - -
21/08:00pm 13.9 ENE 5 8 - - 0.0 - - - - - - -
21/07:30pm 13.7 ENE 6 8 - - 0.0 - - - - - - -
21/07:00pm 13.8 E 4 6 - - 0.0 - - - - - - -
21/06:30pm 14.1 E 3 4 - - 0.0 - - - - - - -
21/06:00pm 14.3 SSW 1 2 - - 0.0 - - - - - - -
21/05:30pm 15.9 CALM 0 0 - - 0.0 - - - - - - -
21/05:00pm 16.4 SSW 2 3 - - 0.0 - - - - - - -
21/04:30pm 15.9 SW 2 3 - - 0.0 - - - - - - -
21/04:00pm 16.6 SW 3 5 - - 0.0 - - - - - - -
21/03:30pm 16.7 SW 3 6 - - 0.0 - - - - - - -
21/03:00pm 17.3 W 4 5 - - 0.0 - - - - - - -
21/02:30pm 17.2 W 3 6 - - 0.0 - - - - - - -
21/02:00pm 16.8 W 4 5 - - 0.0 - - - - - - -
21/01:30pm 16.7 W 3 5 - - 0.0 - - - - - - -
21/01:00pm 15.9 W 3 7 - - 0.0 - - - - - - -
21/12:30pm 15.6 W 5 7 - - 0.0 - - - - - - -
21/12:00pm 16.4 WNW 4 6 - - 0.0 - - - - - - -
21/11:30am 15.4 W 4 7 - - 0.0 - - - - - - -
21/11:00am 14.8 W 5 7 - - 0.0 - - - - - - -
21/10:30am 14.9 NE 3 4 - - 0.0 - - - - - - -
21/10:00am 14.2 NE 2 3 - - 0.0 - - - - - - -
21/09:30am 14.2 NE 2 3 - - 0.0 - - - - - - -
21/09:00am 13.4 NE 2 3 - - 0.2 - - - - - - -
21/08:30am 11.9 ENE 3 5 - - 0.2 - - - - - - -
21/08:00am 10.5 ENE 6 9 - - 0.2 - - - - - - -
21/07:30am 9.3 E 7 10 - - 0.2 - - - - - - -
21/07:00am 8.3 ENE 5 9 - - 0.2 - - - - - - -
21/06:30am 8.5 ENE 6 8 - - 0.2 - - - - - - -
21/06:00am 8.7 E 8 10 - - 0.2 - - - - - - -
21/05:30am 8.6 E 7 10 - - 0.2 - - - - - - -
21/05:00am 8.8 ENE 8 11 - - 0.2 - - - - - - -
21/04:30am 8.8 ENE 8 12 - - 0.2 - - - - - - -
21/04:00am 8.8 E 8 12 - - 0.2 - - - - - - -
21/03:30am 8.8 E 10 14 - - 0.2 - - - - - - -
21/03:00am 9.0 E 9 15 - - 0.2 - - - - - - -
21/02:30am 9.0 E 8 12 - - 0.2 - - - - - - -
21/02:00am 8.9 E 9 13 - - 0.2 - - - - - - -
21/01:30am 8.7 E 8 12 - - 0.2 - - - - - - -
21/01:00am 8.7 E 10 16 - - 0.2 - - - - - - -
21/12:30am 8.8 E 9 14 - - 0.2 - - - - - - -
21/12:00am 8.9 E 9 14 - - 0.2 - - - - - - -
 
Date/Time
CST
Temp

°C
Wind Pressure Rain
since 9am
mm
Weather Cloud Vis
km
Sea
Height
m
Swell
Dir
 
Speed
knots
Gust
knots
hPa Trend Height
m
Period
s
Dir
20/11:30pm 8.9 E 10 14 - - 0.2 - - - - - - -
20/11:00pm 8.8 E 10 14 - - 0.2 - - - - - - -
20/10:30pm 8.8 E 9 14 - - 0.2 - - - - - - -
20/10:00pm 8.7 ESE 10 14 - - 0.2 - - - - - - -
20/09:30pm 8.7 ESE 10 14 - - 0.2 - - - - - - -
20/09:00pm 9.0 ESE 9 13 - - 0.2 - - - - - - -
20/08:30pm 9.0 ESE 11 13 - - 0.2 - - - - - - -
20/08:00pm 9.1 ESE 11 14 - - 0.2 - - - - - - -
20/07:30pm 9.1 ESE 8 12 - - 0.2 - - - - - - -
20/07:00pm 9.6 ESE 9 13 - - 0.2 - - - - - - -
20/06:30pm 10.1 ESE 9 11 - - 0.2 - - - - - - -
20/06:00pm 10.5 ESE 9 12 - - 0.2 - - - - - - -
20/05:30pm 11.5 ESE 7 10 - - 0.2 - - - - - - -
20/05:00pm 12.1 ESE 7 10 - - 0.2 - - - - - - -
20/04:30pm 12.4 SE 8 10 - - 0.2 - - - - - - -
20/04:00pm 12.8 ESE 8 11 - - 0.2 - - - - - - -
20/03:30pm 13.6 SSE 8 13 - - 0.2 - - - - - - -
20/03:00pm 13.5 SE 8 11 - - 0.2 - - - - - - -

Other Formats:

Comma delimited format used in spreadsheet applications
http://www.bom.gov.au/fwo/IDS60701/IDS60701.94808.axf

JavaScript Object Notation format (JSON) in row-major order
http://www.bom.gov.au/fwo/IDS60701/IDS60701.94808.json